Time;durP1;ratioP1;P1;durP2;ratioP2;P2;SDS_P1;SDS_P2;PMS_P1;PMS_P2;Temp;Humidity;BMP_temperature;BMP_pressure;BME280_temperature;BME280_humidity;BME280_pressure;Samples;Min_cycle;Max_cycle;Signal;HPM_P1;HPM_P2
2022/01/26 00:00:29;;;;;;;24.98;15.35;;;;;;;0.05;73.68;97970.66;5035835;28;20064;-78
2022/01/26 00:05:48;;;;;;;27.52;17.05;;;;;;;0.29;75.80;97974.44;5048030;28;20088;-80
2022/01/26 00:08:16;;;;;;;26.48;15.43;;;;;;;0.32;74.67;97978.59;5049522;28;20049;-79
2022/01/26 00:10:45;;;;;;;28.95;15.98;;;;;;;0.38;76.29;97973.13;5036383;28;20068;-81
2022/01/26 00:13:12;;;;;;;28.10;17.08;;;;;;;0.44;74.97;97977.06;5036353;28;20450;-79
2022/01/26 00:15:40;;;;;;;31.75;17.40;;;;;;;0.37;73.79;97976.59;5037387;28;20046;-79
2022/01/26 00:18:07;;;;;;;32.22;19.13;;;;;;;0.33;73.79;97965.69;5046715;28;20113;-78
2022/01/26 00:20:40;;;;;;;33.50;18.40;;;;;;;0.28;73.69;97972.78;5039507;28;20064;-78
2022/01/26 00:23:22;;;;;;;31.70;17.65;;;;;;;0.24;73.83;97976.44;5035383;28;20053;-77
2022/01/26 00:26:04;;;;;;;32.72;19.10;;;;;;;0.16;73.63;97974.28;5035348;28;20049;-80
2022/01/26 00:28:36;;;;;;;32.03;18.30;;;;;;;0.10;73.54;97973.78;5036888;28;20096;-80
2022/01/26 00:39:20;;;;;;;29.45;17.92;;;;;;;-0.06;73.80;97978.94;5034656;28;20050;-78
2022/01/26 00:41:49;;;;;;;29.75;17.00;;;;;;;-0.09;73.69;97982.47;5035249;28;20060;-78
2022/01/26 00:44:17;;;;;;;28.73;17.38;;;;;;;-0.14;73.85;97976.75;5034713;28;20137;-78
2022/01/26 00:46:48;;;;;;;27.05;16.83;;;;;;;-0.19;73.58;97983.88;5035171;28;20057;-80
2022/01/26 00:49:20;;;;;;;31.42;18.50;;;;;;;-0.29;73.46;97978.38;5037420;28;20117;-81
2022/01/26 00:51:48;;;;;;;29.90;18.50;;;;;;;-0.35;73.69;97983.84;5035922;28;20054;-80
2022/01/26 00:54:15;;;;;;;30.42;17.55;;;;;;;-0.39;73.85;97981.50;5034569;28;20045;-79
2022/01/26 00:56:43;;;;;;;31.48;18.42;;;;;;;-0.44;73.99;97987.72;5034589;28;20060;-78
2022/01/26 00:59:12;;;;;;;29.98;17.25;;;;;;;-0.44;74.26;97981.72;5034559;28;20064;-77
2022/01/26 01:01:39;;;;;;;29.33;17.80;;;;;;;-0.39;74.44;97981.50;5034265;28;20053;-78
2022/01/26 01:04:08;;;;;;;33.08;17.95;;;;;;;-0.34;74.15;97989.78;5034637;28;20050;-79
2022/01/26 01:06:43;;;;;;;34.05;19.25;;;;;;;-0.31;75.20;97984.50;5034230;28;20507;-78
2022/01/26 01:09:10;;;;;;;35.15;20.65;;;;;;;-0.17;76.95;97979.50;5035021;28;20392;-80
2022/01/26 01:11:38;;;;;;;43.50;19.17;;;;;;;-0.03;76.31;97978.75;5034415;28;20511;-78
2022/01/26 01:14:06;;;;;;;33.67;18.42;;;;;;;0.03;75.55;97980.16;5034127;28;20046;-79
2022/01/26 01:16:35;;;;;;;33.55;19.90;;;;;;;0.09;76.00;97974.69;5034272;28;20053;-79
2022/01/26 01:19:08;;;;;;;48.40;21.42;;;;;;;0.15;76.01;97969.22;5034279;28;20518;-78
2022/01/26 01:27:24;;;;;;;32.50;17.15;;;;;;;0.35;75.45;97970.69;5034637;28;20057;-81
2022/01/26 01:30:03;;;;;;;31.27;17.55;;;;;;;0.35;76.49;97971.56;5035568;28;20053;-78
2022/01/26 01:32:38;;;;;;;54.83;18.05;;;;;;;0.43;77.43;97978.00;5035203;28;20053;-79
2022/01/26 01:35:09;;;;;;;48.45;18.77;;;;;;;0.45;76.42;97983.88;5035328;28;20054;-79
2022/01/26 01:37:37;;;;;;;153.90;22.35;;;;;;;0.44;75.44;97982.22;5034777;28;20049;-79
2022/01/26 01:40:06;;;;;;;30.38;16.45;;;;;;;0.32;76.08;97988.84;5035065;28;20057;-78
2022/01/26 01:42:33;;;;;;;40.38;16.65;;;;;;;0.20;75.86;97988.63;5035668;28;20053;-79
2022/01/26 01:45:01;;;;;;;33.35;17.08;;;;;;;0.17;76.36;97998.19;5038435;22;20050;-77
2022/01/26 01:47:28;;;;;;;32.20;17.90;;;;;;;0.20;77.22;97985.22;4994175;28;20054;-77
2022/01/26 01:49:57;;;;;;;39.42;17.80;;;;;;;0.23;76.64;97985.03;4994731;28;20508;-77
2022/01/26 01:52:26;;;;;;;28.70;16.27;;;;;;;0.24;77.30;97983.31;4993297;28;20086;-78
2022/01/26 01:55:02;;;;;;;29.77;17.00;;;;;;;0.29;77.91;97984.72;4994339;28;20042;-78
2022/01/26 01:57:29;;;;;;;33.13;19.30;;;;;;;0.35;78.38;97989.53;4994505;28;20062;-77
2022/01/26 01:59:57;;;;;;;29.48;18.13;;;;;;;0.45;78.99;97994.16;4995004;28;20054;-78
2022/01/26 02:02:25;;;;;;;34.17;16.02;;;;;;;0.44;77.92;97989.91;4993749;28;20112;-77
2022/01/26 02:04:52;;;;;;;30.00;18.27;;;;;;;0.43;77.84;97981.38;4992617;28;20411;-78
2022/01/26 02:07:21;;;;;;;82.68;17.80;;;;;;;0.43;76.95;97985.69;4992432;28;20053;-77
2022/01/26 02:09:49;;;;;;;51.10;17.55;;;;;;;0.36;76.12;97980.06;4992551;28;20061;-78
2022/01/26 02:12:22;;;;;;;28.77;16.08;;;;;;;0.34;76.42;97980.16;4992877;28;20058;-77
2022/01/26 02:15:01;;;;;;;25.40;15.20;;;;;;;0.34;76.88;97987.03;4992419;28;20050;-78
2022/01/26 02:17:48;;;;;;;29.73;14.50;;;;;;;0.34;76.46;97981.91;4992670;28;20053;-78
2022/01/26 02:51:05;;;;;;;29.13;16.38;;;;;;;-0.27;77.48;97965.47;4994309;28;20101;-77
2022/01/26 02:53:53;;;;;;;33.72;15.73;;;;;;;-0.19;77.27;97978.75;4994910;28;20061;-78
2022/01/26 02:56:25;;;;;;;62.67;17.42;;;;;;;-0.24;76.17;97973.00;4994869;28;20055;-76
2022/01/26 02:59:24;;;;;;;;;;;;;;;-0.25;75.78;97971.38;4995665;28;20104;-79
2022/01/26 03:01:55;;;;;;;29.27;16.23;;;;;;;-0.28;77.14;97979.22;4992845;28;19921;-78
2022/01/26 03:04:32;;;;;;;36.83;18.33;;;;;;;-0.17;78.97;97978.66;4994087;28;20057;-78
2022/01/26 03:07:05;;;;;;;35.78;17.67;;;;;;;-0.09;78.25;97979.91;4993432;28;20054;-77
2022/01/26 03:09:39;;;;;;;35.63;16.80;;;;;;;-0.04;78.92;97983.06;4993175;28;20488;-78
2022/01/26 03:12:08;;;;;;;39.28;17.88;;;;;;;0.07;79.17;97986.81;4993430;28;20051;-80
2022/01/26 03:14:45;;;;;;;40.17;17.40;;;;;;;0.12;78.02;97983.06;4993588;28;20212;-78
2022/01/26 03:17:24;;;;;;;44.80;17.05;;;;;;;0.11;77.08;97983.97;4994212;28;20113;-78
2022/01/26 03:19:55;;;;;;;42.92;18.35;;;;;;;0.18;77.64;97987.03;4994780;28;20058;-78
2022/01/26 03:33:53;;;;;;;31.67;18.48;;;;;;;0.70;79.56;97989.31;4941525;28;20055;-78
2022/01/26 03:36:21;;;;;;;34.47;18.20;;;;;;;0.80;79.77;97990.44;4997308;28;20444;-78
2022/01/26 03:38:56;;;;;;;36.45;19.88;;;;;;;0.86;80.13;97981.56;4996933;28;20062;-79
2022/01/26 03:41:34;;;;;;;28.05;16.60;;;;;;;0.86;79.51;97989.28;4997686;28;20493;-78
2022/01/26 03:44:03;;;;;;;47.00;18.58;;;;;;;0.82;78.84;97982.66;4997627;28;20094;-78
2022/01/26 03:46:31;;;;;;;30.83;18.40;;;;;;;0.78;77.77;97987.13;4996890;28;20064;-78
2022/01/26 03:48:59;;;;;;;33.58;19.75;;;;;;;0.81;78.90;97986.97;4996958;28;20050;-78
2022/01/26 03:51:26;;;;;;;36.95;20.38;;;;;;;0.87;79.35;97988.34;4997220;28;20050;-78
2022/01/26 03:53:54;;;;;;;46.03;20.33;;;;;;;0.88;79.12;97987.44;4997351;28;20057;-78
2022/01/26 03:56:21;;;;;;;39.78;21.40;;;;;;;0.92;79.58;97988.94;5001458;28;20050;-78
2022/01/26 03:58:50;;;;;;;37.13;19.35;;;;;;;0.98;80.17;97992.88;5000205;28;20057;-78
2022/01/26 04:01:18;;;;;;;33.75;18.95;;;;;;;1.00;79.46;98002.16;4998107;28;20058;-78
2022/01/26 04:03:46;;;;;;;42.50;20.17;;;;;;;0.99;78.96;97994.53;4996926;28;20054;-77
2022/01/26 04:06:14;;;;;;;71.22;20.40;;;;;;;0.94;77.79;97989.66;4997264;28;20463;-78
2022/01/26 04:08:43;;;;;;;33.70;17.85;;;;;;;0.85;77.38;97989.34;4996692;28;20496;-78
2022/01/26 04:11:29;;;;;;;41.17;18.60;;;;;;;0.81;78.01;97986.97;4997011;28;20058;-78
2022/01/26 04:13:59;;;;;;;39.40;20.15;;;;;;;0.84;78.88;97993.66;4996482;28;20504;-78
2022/01/26 04:16:26;;;;;;;37.42;19.48;;;;;;;0.88;79.25;97996.91;4996003;28;20049;-77
2022/01/26 04:18:56;;;;;;;42.33;20.80;;;;;;;0.90;79.98;97992.50;4996510;28;20050;-80
2022/01/26 04:21:33;;;;;;;38.03;20.02;;;;;;;0.94;79.75;97992.25;4997371;28;20054;-80
2022/01/26 04:24:05;;;;;;;40.65;20.27;;;;;;;0.98;80.02;97987.72;4996573;28;20058;-80
2022/01/26 04:26:38;;;;;;;39.72;18.75;;;;;;;1.03;80.14;97988.31;4997412;28;20180;-80
2022/01/26 04:29:08;;;;;;;47.55;21.75;;;;;;;1.06;80.27;97980.41;4996466;28;20047;-80
2022/01/26 04:31:36;;;;;;;40.92;19.92;;;;;;;1.08;79.82;97978.59;4996003;28;20050;-80
2022/01/26 04:34:03;;;;;;;39.08;19.95;;;;;;;1.05;79.16;97978.78;4995799;28;20054;-79
2022/01/26 04:36:36;;;;;;;39.90;20.25;;;;;;;1.01;79.16;97972.16;4995070;28;20065;-80
2022/01/26 04:39:07;;;;;;;38.58;18.77;;;;;;;1.03;79.81;97970.34;4996315;28;20508;-79
2022/01/26 04:41:40;;;;;;;66.57;22.23;;;;;;;1.03;78.75;97965.19;4998235;28;20046;-78
2022/01/26 04:44:16;;;;;;;55.05;19.63;;;;;;;1.00;78.15;97955.06;4996167;28;20058;-77
2022/01/26 04:46:43;;;;;;;36.72;19.05;;;;;;;0.99;78.53;97953.44;4995662;28;20584;-80
2022/01/26 04:49:11;;;;;;;40.50;19.00;;;;;;;1.00;78.95;97952.50;4996216;28;20050;-81
2022/01/26 04:51:38;;;;;;;43.60;20.02;;;;;;;0.98;79.01;97949.19;4995591;28;20054;-81
2022/01/26 04:54:06;;;;;;;58.28;21.92;;;;;;;0.97;79.02;97945.81;4995811;28;20054;-80
2022/01/26 04:56:33;;;;;;;56.63;20.63;;;;;;;0.96;78.42;97951.03;4994862;28;20054;-80
2022/01/26 04:59:01;;;;;;;72.40;23.25;;;;;;;0.87;77.21;97954.94;4995376;28;20057;-80
2022/01/26 05:01:30;;;;;;;41.25;20.63;;;;;;;0.78;78.06;97953.72;4995285;28;20050;-80
2022/01/26 05:03:57;;;;;;;40.25;20.23;;;;;;;0.80;79.77;97949.34;4995422;28;20054;-78
2022/01/26 05:06:25;;;;;;;67.85;22.27;;;;;;;0.88;79.17;97948.09;4995796;28;20053;-78
2022/01/26 05:08:52;;;;;;;43.47;21.50;;;;;;;0.84;78.46;97949.19;4995784;28;20054;-77
2022/01/26 05:11:29;;;;;;;45.78;21.35;;;;;;;0.86;79.63;97948.16;4995466;28;20051;-78
2022/01/26 05:13:58;;;;;;;47.33;22.75;;;;;;;0.93;80.37;97948.66;4995252;28;20066;-78
2022/01/26 05:16:26;;;;;;;53.10;22.30;;;;;;;0.99;80.10;97950.88;4994846;28;20046;-77
2022/01/26 05:18:55;;;;;;;47.08;22.42;;;;;;;1.01;79.63;97952.44;4995202;28;20058;-78
2022/01/26 05:21:23;;;;;;;43.50;21.55;;;;;;;1.06;79.59;97957.28;4995050;28;20520;-78
2022/01/26 05:23:51;;;;;;;45.50;21.73;;;;;;;1.08;79.57;97958.03;4995060;28;20058;-78
2022/01/26 05:26:19;;;;;;;46.65;21.63;;;;;;;1.08;79.69;97963.19;4994684;28;20110;-78
2022/01/26 05:28:46;;;;;;;50.85;22.13;;;;;;;1.09;79.84;97959.69;4994888;28;20054;-77
2022/01/26 05:31:14;;;;;;;48.13;22.20;;;;;;;1.11;80.41;97965.56;4994441;28;20055;-80
2022/01/26 05:33:43;;;;;;;47.63;21.77;;;;;;;1.14;80.20;97949.97;4995093;28;20046;-80
2022/01/26 05:36:12;;;;;;;66.20;22.75;;;;;;;1.15;80.02;97958.50;4996025;28;20046;-85
2022/01/26 05:38:39;;;;;;;56.92;22.20;;;;;;;1.19;80.35;97963.38;5001893;28;20054;-82
2022/01/26 05:41:08;;;;;;;55.53;23.33;;;;;;;1.24;80.60;97953.63;5001076;28;20050;-84
2022/01/26 05:43:36;;;;;;;58.25;22.83;;;;;;;1.29;80.31;97944.84;5002160;28;20097;-86
2022/01/26 05:46:09;;;;;;;47.08;22.65;;;;;;;1.27;79.69;97952.66;4997816;28;20078;-87
2022/01/26 05:48:42;;;;;;;91.10;43.92;;;;;;;1.26;80.05;97955.31;4998407;28;20054;-87
2022/01/26 05:51:11;;;;;;;91.00;42.70;;;;;;;1.29;80.65;97950.81;4998591;28;20058;-85
2022/01/26 05:53:41;;;;;;;53.10;23.83;;;;;;;1.32;80.82;97954.94;4998747;28;20428;-83
2022/01/26 05:56:09;;;;;;;53.38;24.50;;;;;;;1.33;80.84;97957.41;4996617;28;20307;-86
2022/01/26 05:58:37;;;;;;;54.70;22.98;;;;;;;1.37;80.27;97961.47;5002525;28;20073;-80
2022/01/26 06:01:05;;;;;;;54.00;23.60;;;;;;;1.39;80.22;97963.94;5002719;28;20065;-81
2022/01/26 06:03:33;;;;;;;51.78;22.85;;;;;;;1.42;80.57;97962.03;5002645;28;20507;-83
2022/01/26 06:06:01;;;;;;;56.78;23.60;;;;;;;1.44;80.78;97959.34;4998967;28;20058;-83
2022/01/26 06:08:28;;;;;;;62.38;23.15;;;;;;;1.46;80.95;97954.94;4998520;28;20054;-81
2022/01/26 06:10:59;;;;;;;55.30;22.25;;;;;;;1.44;80.26;97949.06;4998619;28;20042;-82
2022/01/26 06:13:26;;;;;;;60.53;21.42;;;;;;;1.44;80.33;97951.63;4998559;28;20504;-80
2022/01/26 06:15:54;;;;;;;53.80;23.20;;;;;;;1.44;80.25;97946.50;4997493;28;20054;-82
2022/01/26 06:18:22;;;;;;;51.67;22.48;;;;;;;1.45;79.97;97950.72;4993532;28;20523;-80
2022/01/26 06:20:49;;;;;;;57.63;24.02;;;;;;;1.44;80.09;97936.22;4995864;28;20523;-81
2022/01/26 06:23:17;;;;;;;51.78;22.90;;;;;;;1.44;79.69;97928.50;4995761;28;20065;-81
2022/01/26 06:25:45;;;;;;;51.95;23.48;;;;;;;1.40;79.49;97934.72;4996552;28;20046;-81
2022/01/26 06:28:15;;;;;;;53.33;24.35;;;;;;;1.41;79.69;97928.69;4996068;28;20061;-83
2022/01/26 06:30:46;;;;;;;54.30;23.25;;;;;;;1.38;79.82;97921.16;4995337;28;20104;-84
2022/01/26 06:33:14;;;;;;;54.17;23.20;;;;;;;1.41;80.21;97928.69;4995258;28;20058;-82
2022/01/26 06:35:42;;;;;;;53.40;23.63;;;;;;;1.44;79.99;97928.50;4980258;28;20051;-86
2022/01/26 06:38:10;;;;;;;49.88;21.55;;;;;;;1.45;80.12;97922.44;4976008;28;20102;-79
2022/01/26 06:40:37;;;;;;;53.72;23.75;;;;;;;1.45;79.71;97917.31;4975363;28;20113;-79
2022/01/26 06:43:10;;;;;;;56.17;24.75;;;;;;;1.48;80.52;97918.88;4975108;28;20050;-81
2022/01/26 06:45:46;;;;;;;54.58;23.42;;;;;;;1.53;80.75;97917.69;4974666;28;20070;-77
2022/01/26 06:50:55;;;;;;;54.40;24.98;;;;;;;1.56;80.09;97926.94;4965279;28;20101;-79
2022/01/26 06:53:23;;;;;;;57.10;22.67;;;;;;;1.54;79.66;97924.47;4973961;28;20047;-81
2022/01/26 06:55:51;;;;;;;55.42;22.27;;;;;;;1.54;79.46;97921.88;4973645;28;20121;-82
2022/01/26 06:58:18;;;;;;;51.63;23.52;;;;;;;1.52;79.51;97931.44;4973715;28;20059;-77
2022/01/26 07:00:48;;;;;;;58.20;24.20;;;;;;;1.48;79.46;97926.56;4987394;28;20046;-77
2022/01/26 07:03:16;;;;;;;61.42;23.90;;;;;;;1.43;79.56;97937.13;5001908;28;20064;-78
2022/01/26 07:05:44;;;;;;;51.75;23.42;;;;;;;1.40;79.78;97945.03;5012470;28;20069;-77
2022/01/26 07:08:12;;;;;;;53.65;23.13;;;;;;;1.41;80.57;97939.78;4974282;28;20058;-81
2022/01/26 07:10:39;;;;;;;55.72;24.13;;;;;;;1.46;80.76;97947.22;4973638;28;20078;-82
2022/01/26 07:13:07;;;;;;;57.25;23.85;;;;;;;1.48;80.40;97950.53;4985114;28;20050;-83
2022/01/26 07:23:52;;;;;;;47.10;22.13;;;;;;;1.36;78.22;97962.38;4992999;28;20138;-84
2022/01/26 07:26:19;;;;;;;49.47;22.27;;;;;;;1.38;79.23;97970.03;4992747;28;20052;-84
2022/01/26 07:28:47;;;;;;;55.30;22.75;;;;;;;1.40;79.61;97968.16;4992893;28;20054;-78
2022/01/26 07:31:15;;;;;;;53.75;23.50;;;;;;;1.40;79.61;97973.31;4992770;28;20130;-83
2022/01/26 07:33:43;;;;;;;57.45;23.30;;;;;;;1.44;80.85;97990.22;4992583;28;20050;-83
2022/01/26 07:36:11;;;;;;;50.78;21.63;;;;;;;1.45;80.18;97991.88;4992121;28;20050;-79
2022/01/26 07:38:39;;;;;;;58.75;22.75;;;;;;;1.43;80.42;97993.72;4992654;28;20057;-75
2022/01/26 07:41:07;;;;;;;54.38;22.75;;;;;;;1.44;80.86;97995.34;4984768;28;20067;-78
2022/01/26 07:43:35;;;;;;;47.60;20.25;;;;;;;1.44;80.40;98001.34;4985532;28;20150;-74
2022/01/26 07:46:02;;;;;;;41.22;17.85;;;;;;;1.39;79.56;97993.06;4993932;28;20145;-75
2022/01/26 07:48:30;;;;;;;44.72;20.73;;;;;;;1.33;78.64;97997.72;4995461;28;20500;-77
2022/01/26 07:50:58;;;;;;;43.03;20.50;;;;;;;1.31;78.44;97994.41;4995400;28;20054;-79
2022/01/26 07:53:26;;;;;;;52.38;20.40;;;;;;;1.29;78.39;97984.25;4995644;28;20050;-74
2022/01/26 07:55:55;;;;;;;46.78;20.08;;;;;;;1.29;79.40;97991.97;4994020;28;20050;-75
2022/01/26 07:58:24;;;;;;;48.75;20.33;;;;;;;1.33;80.39;97995.97;4994760;28;20500;-75
2022/01/26 08:00:52;;;;;;;46.95;18.50;;;;;;;1.35;80.20;97998.47;5005331;28;20050;-77
2022/01/26 08:03:20;;;;;;;46.58;18.98;;;;;;;1.35;80.40;98008.75;5014672;28;20531;-77
2022/01/26 08:05:48;;;;;;;46.22;17.92;;;;;;;1.35;80.16;98007.00;5014920;28;20054;-77
2022/01/26 08:08:17;;;;;;;49.58;21.58;;;;;;;1.36;80.53;98005.28;5014131;28;20568;-81
2022/01/26 08:10:49;;;;;;;43.20;19.92;;;;;;;1.37;80.52;98017.19;5012410;28;20061;-79
2022/01/26 08:13:16;;;;;;;46.88;19.02;;;;;;;1.40;80.94;98010.16;5012157;28;20471;-79
2022/01/26 08:15:44;;;;;;;45.60;19.40;;;;;;;1.42;81.01;98008.31;5004714;28;20042;-80
2022/01/26 08:18:11;;;;;;;49.50;21.10;;;;;;;1.44;80.80;98018.50;4993038;28;20042;-80
2022/01/26 08:20:41;;;;;;;51.17;21.17;;;;;;;1.47;80.54;98020.09;4995816;28;20054;-80
2022/01/26 08:23:09;;;;;;;50.75;20.85;;;;;;;1.46;80.49;98008.94;4996372;28;20054;-82
2022/01/26 08:25:37;;;;;;;51.22;19.85;;;;;;;1.47;80.62;98015.75;4996003;28;20051;-77
2022/01/26 08:28:09;;;;;;;45.55;19.85;;;;;;;1.44;80.42;98006.47;4996689;28;20456;-79
2022/01/26 08:30:38;;;;;;;54.00;20.48;;;;;;;1.42;80.23;97998.03;4998696;28;20641;-77
2022/01/26 08:33:07;;;;;;;43.95;18.95;;;;;;;1.38;80.26;97993.16;4998334;28;20415;-78
2022/01/26 08:35:36;;;;;;;47.63;19.30;;;;;;;1.39;81.01;97994.81;4998911;28;20061;-77
2022/01/26 08:38:04;;;;;;;51.95;23.00;;;;;;;1.41;80.62;97995.53;5013619;28;20050;-77
2022/01/26 08:40:33;;;;;;;52.42;22.50;;;;;;;1.41;80.49;97990.41;5018081;28;20431;-77
2022/01/26 08:43:04;;;;;;;54.67;21.38;;;;;;;1.39;80.51;97992.22;5018143;28;20049;-80
2022/01/26 08:45:32;;;;;;;55.90;23.65;;;;;;;1.41;80.75;97998.13;5017667;28;20057;-78
2022/01/26 08:47:59;;;;;;;52.33;22.92;;;;;;;1.41;80.50;97992.97;5018415;28;20061;-78
2022/01/26 08:50:27;;;;;;;55.58;23.02;;;;;;;1.42;80.51;98002.31;5015789;28;20053;-78
2022/01/26 08:52:54;;;;;;;51.95;22.73;;;;;;;1.44;80.82;98000.50;5015308;28;20503;-83
2022/01/26 08:55:22;;;;;;;54.20;23.75;;;;;;;1.47;80.82;97999.50;5014843;28;20050;-83
2022/01/26 08:57:49;;;;;;;49.30;20.63;;;;;;;1.44;80.18;97998.78;5015092;28;20050;-77
2022/01/26 09:00:18;;;;;;;59.47;24.35;;;;;;;1.41;79.69;97995.53;5015176;28;20500;-79
2022/01/26 09:02:47;;;;;;;55.30;22.40;;;;;;;1.41;79.23;97992.97;5015470;28;20508;-77
2022/01/26 09:05:15;;;;;;;51.30;21.77;;;;;;;1.41;79.83;98000.69;5015166;28;20132;-79
2022/01/26 09:07:44;;;;;;;55.33;21.70;;;;;;;1.41;80.15;98010.97;5014574;28;20503;-77
2022/01/26 09:10:12;;;;;;;53.72;21.83;;;;;;;1.39;79.49;98015.38;5014905;28;20046;-78
2022/01/26 09:12:43;;;;;;;62.03;23.95;;;;;;;1.35;79.34;98014.72;5014885;28;20054;-78
2022/01/26 09:15:11;;;;;;;57.28;21.98;;;;;;;1.37;79.75;98012.88;5014371;28;20046;-78
2022/01/26 09:17:42;;;;;;;58.53;23.63;;;;;;;1.40;80.61;98010.16;5015413;28;20424;-78
2022/01/26 09:20:11;;;;;;;57.97;23.38;;;;;;;1.42;80.52;98000.59;5016147;28;20412;-78
2022/01/26 09:22:38;;;;;;;51.67;22.10;;;;;;;1.46;80.72;98023.56;5015840;28;20057;-79
2022/01/26 09:25:07;;;;;;;50.05;23.48;;;;;;;1.50;80.86;98030.19;5016137;28;20057;-77
2022/01/26 09:27:36;;;;;;;50.17;21.58;;;;;;;1.51;80.53;98032.66;5014752;28;20419;-76
2022/01/26 09:30:05;;;;;;;48.08;20.98;;;;;;;1.51;80.25;98037.81;5015179;28;20045;-76
2022/01/26 09:32:36;;;;;;;47.80;22.30;;;;;;;1.50;79.35;98043.03;5016495;28;20053;-81
2022/01/26 09:35:06;;;;;;;43.42;19.60;;;;;;;1.48;79.30;98039.72;5019103;28;20058;-80
2022/01/26 09:37:34;;;;;;;43.60;20.15;;;;;;;1.47;79.75;98036.31;5005374;28;20050;-79
2022/01/26 09:40:03;;;;;;;49.17;21.02;;;;;;;1.50;80.21;98025.84;4997480;28;20511;-79
2022/01/26 09:42:32;;;;;;;48.35;20.67;;;;;;;1.53;80.02;98022.25;4996715;28;20062;-76
2022/01/26 09:45:00;;;;;;;48.00;20.23;;;;;;;1.53;79.35;98025.69;4996214;28;20054;-79
2022/01/26 09:47:28;;;;;;;44.40;20.35;;;;;;;1.51;79.19;98024.94;4995807;28;20081;-76
2022/01/26 09:50:10;;;;;;;47.25;19.67;;;;;;;1.48;78.81;98027.69;4995952;28;20480;-76
2022/01/26 09:52:44;;;;;;;51.20;24.13;;;;;;;1.44;78.56;98018.50;4995382;28;20050;-79
2022/01/26 09:55:12;;;;;;;61.33;25.05;;;;;;;1.42;78.89;98010.03;4995265;28;20050;-75
2022/01/26 09:57:42;;;;;;;54.08;22.20;;;;;;;1.43;79.80;98004.81;4994873;28;20565;-77
2022/01/26 10:00:11;;;;;;;52.60;22.42;;;;;;;1.46;79.94;97993.50;4995152;28;20058;-76
2022/01/26 10:02:39;;;;;;;50.55;23.17;;;;;;;1.46;79.95;97985.81;4995831;28;20050;-75
2022/01/26 10:05:11;;;;;;;59.38;23.70;;;;;;;1.47;80.17;97984.91;4995356;28;20058;-76
2022/01/26 10:07:55;;;;;;;54.85;23.33;;;;;;;1.47;79.62;97990.03;4994677;28;20050;-78
2022/01/26 10:15:27;;;;;;;62.53;24.50;;;;;;;1.49;79.76;97983.06;4994494;28;20050;-78
2022/01/26 10:16:48;;;;;;;53.05;22.48;;;;;;;1.54;79.85;97975.06;4994675;28;20054;-76
2022/01/26 10:19:13;;;;;;;57.92;24.15;;;;;;;1.53;79.49;97989.69;4994518;28;20046;-78
2022/01/26 10:21:49;;;;;;;51.38;22.42;;;;;;;1.50;79.96;97989.84;4994462;28;20051;-77
2022/01/26 10:24:20;;;;;;;51.55;21.08;;;;;;;1.48;80.28;97983.97;4994808;28;20054;-76
2022/01/26 10:26:49;;;;;;;51.45;21.60;;;;;;;1.49;79.70;97988.22;4994214;28;20435;-76
2022/01/26 10:29:18;;;;;;;47.03;20.75;;;;;;;1.50;79.93;97978.75;4994416;28;20050;-76
2022/01/26 10:31:45;;;;;;;43.72;23.08;;;;;;;1.50;79.11;98002.72;4994719;28;20137;-76
2022/01/26 10:34:15;;;;;;;48.35;20.50;;;;;;;1.51;78.82;98004.38;4994881;28;20046;-76
2022/01/26 10:36:44;;;;;;;49.53;22.80;;;;;;;1.54;79.69;98000.78;4993876;28;20058;-84
2022/01/26 10:39:19;;;;;;;50.28;23.15;;;;;;;1.58;80.57;97995.38;4993606;28;20050;-79
2022/01/26 10:41:49;;;;;;;46.85;20.85;;;;;;;1.58;79.84;97985.09;4992825;28;20060;-83
2022/01/26 10:44:18;;;;;;;50.05;22.40;;;;;;;1.62;79.76;97988.31;4993181;28;20054;-81
2022/01/26 10:46:46;;;;;;;55.75;23.13;;;;;;;1.63;79.63;97984.81;4992884;28;20061;-82
2022/01/26 10:49:20;;;;;;;50.67;22.77;;;;;;;1.64;79.30;97973.63;4993594;28;20050;-83
2022/01/26 10:52:02;;;;;;;49.70;22.77;;;;;;;1.62;79.50;97954.88;4993374;28;20054;-83
2022/01/26 10:54:37;;;;;;;51.60;23.37;;;;;;;1.63;80.10;97959.91;4993592;28;20497;-77
2022/01/26 10:57:07;;;;;;;55.90;24.02;;;;;;;1.68;80.02;97975.06;4993389;28;20287;-77
2022/01/26 10:59:35;;;;;;;53.28;21.73;;;;;;;1.69;79.19;97986.19;4994091;28;20042;-78
2022/01/26 11:02:05;;;;;;;54.17;21.20;;;;;;;1.67;79.22;97999.16;4995003;28;20140;-79
2022/01/26 11:04:34;;;;;;;49.65;23.92;;;;;;;1.70;79.96;98000.69;4994687;28;20054;-77
2022/01/26 11:07:03;;;;;;;52.22;24.17;;;;;;;1.74;79.79;98003.00;4993256;28;20046;-81
2022/01/26 11:09:35;;;;;;;55.55;23.55;;;;;;;1.74;78.41;98012.47;4993469;28;20420;-77
2022/01/26 11:12:05;;;;;;;42.90;20.60;;;;;;;1.62;77.85;98003.75;4993032;28;20051;-78
2022/01/26 11:14:41;;;;;;;57.20;24.50;;;;;;;1.59;79.62;98014.19;4992888;28;20049;-78
2022/01/26 11:17:09;;;;;;;54.97;24.17;;;;;;;1.59;79.26;98024.47;4992692;28;20061;-78
2022/01/26 11:19:42;;;;;;;57.28;24.02;;;;;;;1.56;80.09;98022.94;4992961;28;20448;-81
2022/01/26 11:22:11;;;;;;;53.83;23.92;;;;;;;1.57;80.32;98018.59;4996103;28;20116;-77
2022/01/26 11:25:10;;;;;;;52.90;25.25;;;;;;;1.57;79.66;98027.13;4994095;28;20082;-77
2022/01/26 11:27:40;;;;;;;55.45;23.42;;;;;;;1.54;78.46;98032.47;4994488;28;20058;-82
2022/01/26 11:30:16;;;;;;;52.65;22.38;;;;;;;1.49;78.03;98031.06;4994341;28;20046;-77
2022/01/26 11:32:51;;;;;;;49.92;23.45;;;;;;;1.49;79.65;98023.34;4994130;28;20397;-84
2022/01/26 11:35:20;;;;;;;53.28;23.10;;;;;;;1.48;78.86;98012.25;4993370;28;20081;-83
2022/01/26 11:38:04;;;;;;;55.35;25.17;;;;;;;1.50;80.12;98002.72;5006110;28;20053;-77
2022/01/26 11:46:28;;;;;;;49.22;22.40;;;;;;;1.57;79.33;97990.31;5012455;28;20057;-81
2022/01/26 11:49:06;;;;;;;56.45;24.77;;;;;;;1.61;79.19;97989.22;5012228;28;20046;-77
2022/01/26 11:51:44;;;;;;;53.55;24.05;;;;;;;1.59;78.28;97991.88;5013077;28;20427;-82
2022/01/26 11:54:17;;;;;;;50.60;23.25;;;;;;;1.61;79.42;97987.47;5015489;28;20066;-79
2022/01/26 11:56:56;;;;;;;;;;;;;;;1.62;79.48;97981.41;5016807;28;20053;-83
2022/01/26 11:59:26;;;;;;;61.40;24.40;;;;;;;1.62;78.95;97999.41;5016836;28;20052;-78
2022/01/26 12:01:59;;;;;;;53.90;23.27;;;;;;;1.60;79.31;98000.44;5016936;28;20092;-77
2022/01/26 12:04:31;;;;;;;49.15;22.90;;;;;;;1.56;78.80;97989.50;5016388;28;20050;-76
2022/01/26 12:07:09;;;;;;;58.10;24.45;;;;;;;1.56;79.78;97974.06;5016527;28;20057;-76
2022/01/26 12:09:39;;;;;;;56.03;24.10;;;;;;;1.60;80.06;97983.25;5016824;28;20112;-77
2022/01/26 12:12:17;;;;;;;52.10;24.42;;;;;;;1.64;80.77;97989.88;5017134;28;20050;-77
2022/01/26 12:14:46;;;;;;;61.13;24.80;;;;;;;1.65;78.91;97977.81;5015797;28;20045;-77
2022/01/26 12:17:24;;;;;;;52.70;23.42;;;;;;;1.63;78.83;97970.19;5015718;28;20112;-75
2022/01/26 12:20:10;;;;;;;53.90;23.20;;;;;;;1.67;80.01;97968.28;5015708;28;20050;-76
2022/01/26 12:36:51;;;;;;;53.28;24.40;;;;;;;1.71;79.81;97971.50;5002288;28;20045;-76
2022/01/26 12:41:11;;;;;;;50.55;23.38;;;;;;;1.74;80.00;97973.88;5015845;28;20455;-76
2022/01/26 12:42:10;;;;;;;45.95;22.23;;;;;;;1.74;79.34;97971.31;5015200;28;20081;-78
2022/01/26 12:44:39;;;;;;;53.70;22.65;;;;;;;1.72;79.63;97975.72;5015822;28;20076;-76
2022/01/26 12:47:07;;;;;;;52.72;23.67;;;;;;;1.72;79.79;97979.09;5016116;28;20057;-77
2022/01/26 12:49:35;;;;;;;63.45;26.27;;;;;;;1.76;79.92;97972.03;5016141;28;20053;-77
2022/01/26 12:52:04;;;;;;;63.55;26.25;;;;;;;1.76;79.74;97974.63;5016015;28;20053;-75
2022/01/26 12:54:32;;;;;;;55.28;25.15;;;;;;;1.78;80.08;97977.91;5015759;28;20050;-77
2022/01/26 12:57:04;;;;;;;55.60;24.35;;;;;;;1.76;79.56;97972.84;5015318;28;20472;-77
2022/01/26 12:59:31;;;;;;;59.33;27.92;;;;;;;1.76;79.30;97977.19;5015900;28;20427;-77
2022/01/26 13:02:00;;;;;;;60.97;27.15;;;;;;;1.76;79.94;97984.91;5015836;28;20408;-77
2022/01/26 13:04:28;;;;;;;55.00;24.92;;;;;;;1.72;79.07;97983.44;5014406;28;20053;-76
2022/01/26 13:06:55;;;;;;;48.50;22.25;;;;;;;1.63;78.49;97985.63;5014186;28;20050;-76
2022/01/26 13:09:26;;;;;;;51.22;22.73;;;;;;;1.57;78.64;97977.44;5014180;28;20041;-76
2022/01/26 13:11:55;;;;;;;55.80;24.00;;;;;;;1.56;79.29;97968.91;5014447;28;20054;-77